Archival Weather

Fukuoka

Fukuoka, Japan (RJFF)

Report from: Tuesday, August 16, 2022 12:41 PM JST
Current time: Sunday, November 27, 2022 4:48 PM JST

Current weather
Weather history
Weather forecast

Present weatherLight rain showers
Temperature29.0°C (84.2°F)
Heat index36.8°C (98.2°F)
Dew point27.0°C (80.6°F)
Winds 4 kts (2.1 m/s, 4.6 mph) Vrb
Winds variableWinds variable
Visibility6.2 mi. (10 km)
Clouds Few clouds 1,500 ft. (457 m)
Few clouds with towering cumulus 2,500 ft. (762 m)
Scattered clouds 3,500 ft. (1,067 m)
Ceiling: Broken clouds 4,000 ft. (1,219 m)
Altimeter29.74 in.Hg (1007 mB)
Relative humidity89 %
Density altitude2,292 ft. (699 m)
Remarks Special weather observation
Towering cumulus clouds observed southeast south moving northeast
Flight conditions Visual Meteorological Conditions
Raw dataSPJP31 KWBC 160356 SPECI RJFF 160341Z VRB04KT 9999 -SHRA FEW015 FEW025TCU SCT035 BKN040 29/27 Q1007 RMK 1CU015 1TCU025 3CU035 6CU040 A2974 TCU 15KM SE-S MOV NE
An error has occurred. This application may no longer respond until reloaded. Reload 🗙